sensor_id;sensor_type;location;lat;lon;timestamp;pressure;altitude;pressure_sealevel;temperature;humidity
62864;BME280;48954;59.950;11.014;2022-09-09T00:06:43;100383.56;;;11.15;64.31
62864;BME280;48954;59.950;11.014;2022-09-09T00:09:26;100380.05;;;11.11;64.35
62864;BME280;48954;59.950;11.014;2022-09-09T00:12:12;100375.36;;;11.09;64.39
62864;BME280;48954;59.950;11.014;2022-09-09T00:14:58;100374.09;;;11.09;64.34
62864;BME280;48954;59.950;11.014;2022-09-09T00:17:44;100368.70;;;11.08;64.34
62864;BME280;48954;59.950;11.014;2022-09-09T00:20:32;100366.27;;;11.08;64.45
62864;BME280;48954;59.950;11.014;2022-09-09T00:28:19;100371.59;;;11.04;64.45
62864;BME280;48954;59.950;11.014;2022-09-09T00:30:48;100370.48;;;11.05;64.66
62864;BME280;48954;59.950;11.014;2022-09-09T00:33:19;100371.17;;;11.04;64.70
62864;BME280;48954;59.950;11.014;2022-09-09T00:35:49;100374.88;;;11.04;64.79
62864;BME280;48954;59.950;11.014;2022-09-09T00:38:19;100369.64;;;11.02;64.76
62864;BME280;48954;59.950;11.014;2022-09-09T00:41:05;100372.67;;;11.01;64.69
62864;BME280;48954;59.950;11.014;2022-09-09T00:43:37;100368.71;;;11.00;64.78
62864;BME280;48954;59.950;11.014;2022-09-09T00:48:37;100367.98;;;10.97;64.86
62864;BME280;48954;59.950;11.014;2022-09-09T00:51:15;100364.90;;;10.96;64.91
62864;BME280;48954;59.950;11.014;2022-09-09T00:56:33;100363.69;;;10.95;65.07
62864;BME280;48954;59.950;11.014;2022-09-09T01:01:52;100355.38;;;10.91;65.06
62864;BME280;48954;59.950;11.014;2022-09-09T01:04:26;100349.58;;;10.89;65.14
62864;BME280;48954;59.950;11.014;2022-09-09T01:07:01;100352.36;;;10.87;65.26
62864;BME280;48954;59.950;11.014;2022-09-09T01:09:52;100351.73;;;10.85;65.39
62864;BME280;48954;59.950;11.014;2022-09-09T01:13:04;100349.83;;;10.85;65.38
62864;BME280;48954;59.950;11.014;2022-09-09T01:17:46;100347.10;;;10.85;65.39
62864;BME280;48954;59.950;11.014;2022-09-09T01:28:10;100344.46;;;10.81;65.71
62864;BME280;48954;59.950;11.014;2022-09-09T01:30:40;100339.03;;;10.79;65.64
62864;BME280;48954;59.950;11.014;2022-09-09T01:33:09;100338.32;;;10.79;65.72
62864;BME280;48954;59.950;11.014;2022-09-09T01:38:10;100342.06;;;10.78;65.80
62864;BME280;48954;59.950;11.014;2022-09-09T01:40:36;100343.16;;;10.78;65.87
62864;BME280;48954;59.950;11.014;2022-09-09T01:43:07;100339.70;;;10.78;65.94
62864;BME280;48954;59.950;11.014;2022-09-09T01:45:34;100337.27;;;10.78;65.95
62864;BME280;48954;59.950;11.014;2022-09-09T01:48:02;100335.23;;;10.78;65.95
62864;BME280;48954;59.950;11.014;2022-09-09T01:50:29;100335.56;;;10.75;66.06
62864;BME280;48954;59.950;11.014;2022-09-09T01:52:57;100338.36;;;10.74;65.95
62864;BME280;48954;59.950;11.014;2022-09-09T01:55:30;100333.94;;;10.73;66.08
62864;BME280;48954;59.950;11.014;2022-09-09T01:58:06;100334.22;;;10.72;66.21
62864;BME280;48954;59.950;11.014;2022-09-09T02:00:41;100336.62;;;10.71;66.26
62864;BME280;48954;59.950;11.014;2022-09-09T02:05:40;100329.77;;;10.68;66.46
62864;BME280;48954;59.950;11.014;2022-09-09T02:13:17;100321.84;;;10.61;66.63
62864;BME280;48954;59.950;11.014;2022-09-09T02:15:47;100325.23;;;10.63;66.62
62864;BME280;48954;59.950;11.014;2022-09-09T02:18:20;100327.09;;;10.62;66.74
62864;BME280;48954;59.950;11.014;2022-09-09T02:20:52;100323.91;;;10.62;66.75
62864;BME280;48954;59.950;11.014;2022-09-09T02:23:25;100318.05;;;10.58;66.84
62864;BME280;48954;59.950;11.014;2022-09-09T02:25:53;100324.10;;;10.63;66.93
62864;BME280;48954;59.950;11.014;2022-09-09T02:31:13;100318.25;;;10.62;67.20
62864;BME280;48954;59.950;11.014;2022-09-09T02:33:52;100306.64;;;10.60;67.11
62864;BME280;48954;59.950;11.014;2022-09-09T02:36:20;100307.84;;;10.58;66.99
62864;BME280;48954;59.950;11.014;2022-09-09T02:38:50;100307.50;;;10.58;67.10
62864;BME280;48954;59.950;11.014;2022-09-09T02:41:19;100301.16;;;10.56;67.17
62864;BME280;48954;59.950;11.014;2022-09-09T02:43:47;100300.23;;;10.54;67.22
62864;BME280;48954;59.950;11.014;2022-09-09T02:56:13;100297.82;;;10.45;67.55
62864;BME280;48954;59.950;11.014;2022-09-09T02:58:49;100296.77;;;10.39;67.67
62864;BME280;48954;59.950;11.014;2022-09-09T03:01:18;100297.41;;;10.39;67.77
62864;BME280;48954;59.950;11.014;2022-09-09T03:03:49;100297.81;;;10.36;67.86
62864;BME280;48954;59.950;11.014;2022-09-09T03:06:18;100302.73;;;10.33;67.94
62864;BME280;48954;59.950;11.014;2022-09-09T03:08:49;100288.18;;;10.23;68.03
62864;BME280;48954;59.950;11.014;2022-09-09T03:11:17;100299.06;;;10.29;68.12
62864;BME280;48954;59.950;11.014;2022-09-09T03:13:52;100302.77;;;10.27;68.31
62864;BME280;48954;59.950;11.014;2022-09-09T03:16:20;100300.54;;;10.27;68.29
62864;BME280;48954;59.950;11.014;2022-09-09T03:21:38;100289.09;;;10.20;68.42
62864;BME280;48954;59.950;11.014;2022-09-09T03:24:38;100288.78;;;10.20;68.52
62864;BME280;48954;59.950;11.014;2022-09-09T03:27:42;100289.83;;;10.18;68.64
62864;BME280;48954;59.950;11.014;2022-09-09T03:33:46;100286.65;;;10.14;68.58
62864;BME280;48954;59.950;11.014;2022-09-09T05:03:04;100266.02;;;9.49;70.75
62864;BME280;48954;59.950;11.014;2022-09-09T05:06:11;100262.28;;;9.44;70.88
62864;BME280;48954;59.950;11.014;2022-09-09T05:09:02;100270.36;;;9.44;70.83
62864;BME280;48954;59.950;11.014;2022-09-09T05:12:05;100271.20;;;9.44;70.95
62864;BME280;48954;59.950;11.014;2022-09-09T05:15:03;100268.83;;;9.43;71.01
62864;BME280;48954;59.950;11.014;2022-09-09T05:17:46;100270.26;;;9.41;71.24
62864;BME280;48954;59.950;11.014;2022-09-09T05:20:35;100272.50;;;9.43;71.12
62864;BME280;48954;59.950;11.014;2022-09-09T05:23:37;100269.36;;;9.40;71.16
62864;BME280;48954;59.950;11.014;2022-09-09T05:26:14;100267.12;;;9.39;71.23
62864;BME280;48954;59.950;11.014;2022-09-09T05:29:08;100273.81;;;9.44;71.22
62864;BME280;48954;59.950;11.014;2022-09-09T05:31:35;100273.98;;;9.44;71.37
62864;BME280;48954;59.950;11.014;2022-09-09T05:34:05;100275.17;;;9.45;71.27
62864;BME280;48954;59.950;11.014;2022-09-09T05:36:48;100270.38;;;9.45;71.52
62864;BME280;48954;59.950;11.014;2022-09-09T05:39:26;100270.39;;;9.45;71.53
62864;BME280;48954;59.950;11.014;2022-09-09T05:41:52;100274.11;;;9.44;71.55
62864;BME280;48954;59.950;11.014;2022-09-09T05:44:19;100269.77;;;9.43;71.57
62864;BME280;48954;59.950;11.014;2022-09-09T05:46:45;100256.90;;;9.36;71.69
62864;BME280;48954;59.950;11.014;2022-09-09T05:49:17;100266.56;;;9.46;71.75
62864;BME280;48954;59.950;11.014;2022-09-09T05:51:43;100271.65;;;9.47;71.64
62864;BME280;48954;59.950;11.014;2022-09-09T05:54:09;100272.18;;;9.50;71.63
62864;BME280;48954;59.950;11.014;2022-09-09T05:56:36;100268.85;;;9.51;71.85
62864;BME280;48954;59.950;11.014;2022-09-09T05:59:02;100271.77;;;9.53;71.76
62864;BME280;48954;59.950;11.014;2022-09-09T06:01:30;100270.54;;;9.54;71.89
62864;BME280;48954;59.950;11.014;2022-09-09T06:03:57;100271.09;;;9.54;71.67
62864;BME280;48954;59.950;11.014;2022-09-09T06:06:24;100273.11;;;9.56;71.83
62864;BME280;48954;59.950;11.014;2022-09-09T06:08:56;100269.80;;;9.57;71.83
62864;BME280;48954;59.950;11.014;2022-09-09T06:11:25;100269.16;;;9.57;71.66
62864;BME280;48954;59.950;11.014;2022-09-09T06:13:52;100265.56;;;9.57;71.83
62864;BME280;48954;59.950;11.014;2022-09-09T06:16:19;100263.38;;;9.60;72.00
62864;BME280;48954;59.950;11.014;2022-09-09T06:18:45;100262.33;;;9.62;72.07
62864;BME280;48954;59.950;11.014;2022-09-09T06:21:15;100264.48;;;9.65;72.01
62864;BME280;48954;59.950;11.014;2022-09-09T06:23:42;100260.70;;;9.69;72.02
62864;BME280;48954;59.950;11.014;2022-09-09T06:26:18;100258.59;;;9.71;72.06
62864;BME280;48954;59.950;11.014;2022-09-09T06:28:45;100254.44;;;9.74;71.94
62864;BME280;48954;59.950;11.014;2022-09-09T06:31:15;100251.69;;;9.77;71.93
62864;BME280;48954;59.950;11.014;2022-09-09T06:33:42;100254.23;;;9.78;71.87
62864;BME280;48954;59.950;11.014;2022-09-09T06:36:11;100255.27;;;9.80;71.88
62864;BME280;48954;59.950;11.014;2022-09-09T06:38:38;100256.29;;;9.85;71.96
62864;BME280;48954;59.950;11.014;2022-09-09T06:41:04;100255.36;;;9.88;71.93
62864;BME280;48954;59.950;11.014;2022-09-09T06:43:32;100254.27;;;9.91;71.90
62864;BME280;48954;59.950;11.014;2022-09-09T06:46:06;100256.48;;;9.93;71.91
62864;BME280;48954;59.950;11.014;2022-09-09T06:48:35;100255.38;;;9.93;71.92
62864;BME280;48954;59.950;11.014;2022-09-09T06:53:28;100258.27;;;10.00;71.74
62864;BME280;48954;59.950;11.014;2022-09-09T06:55:54;100256.13;;;10.04;71.70
62864;BME280;48954;59.950;11.014;2022-09-09T06:58:21;100256.70;;;10.08;71.79
62864;BME280;48954;59.950;11.014;2022-09-09T07:00:47;100250.52;;;10.08;71.57
62864;BME280;48954;59.950;11.014;2022-09-09T07:03:14;100256.42;;;10.14;71.62
62864;BME280;48954;59.950;11.014;2022-09-09T07:05:40;100255.80;;;10.18;71.57
62864;BME280;48954;59.950;11.014;2022-09-09T07:08:11;100256.46;;;10.21;71.54
62864;BME280;48954;59.950;11.014;2022-09-09T07:10:38;100257.11;;;10.23;71.38
62864;BME280;48954;59.950;11.014;2022-09-09T07:13:04;100258.83;;;10.26;71.22
62864;BME280;48954;59.950;11.014;2022-09-09T07:15:30;100257.49;;;10.29;71.20
62864;BME280;48954;59.950;11.014;2022-09-09T07:18:00;100257.14;;;10.32;71.11
62864;BME280;48954;59.950;11.014;2022-09-09T07:20:27;100251.22;;;10.29;70.92
62864;BME280;48954;59.950;11.014;2022-09-09T07:22:54;100256.59;;;10.35;70.73
62864;BME280;48954;59.950;11.014;2022-09-09T07:25:20;100249.48;;;10.31;70.76
62864;BME280;48954;59.950;11.014;2022-09-09T07:27:47;100255.83;;;10.38;70.65
62864;BME280;48954;59.950;11.014;2022-09-09T07:30:13;100254.68;;;10.40;70.64
62864;BME280;48954;59.950;11.014;2022-09-09T07:32:40;100256.45;;;10.41;70.54
62864;BME280;48954;59.950;11.014;2022-09-09T07:35:06;100255.90;;;10.43;70.50
62864;BME280;48954;59.950;11.014;2022-09-09T07:37:35;100259.00;;;10.47;70.39
62864;BME280;48954;59.950;11.014;2022-09-09T07:40:02;100260.45;;;10.51;70.30
62864;BME280;48954;59.950;11.014;2022-09-09T07:42:28;100257.60;;;10.53;70.09
62864;BME280;48954;59.950;11.014;2022-09-09T07:44:55;100258.06;;;10.55;70.03
62864;BME280;48954;59.950;11.014;2022-09-09T07:47:21;100256.91;;;10.58;70.02
62864;BME280;48954;59.950;11.014;2022-09-09T07:49:57;100254.19;;;10.61;69.95
62864;BME280;48954;59.950;11.014;2022-09-09T07:52:23;100254.79;;;10.63;69.77
62864;BME280;48954;59.950;11.014;2022-09-09T07:54:50;100255.59;;;10.63;69.68
62864;BME280;48954;59.950;11.014;2022-09-09T07:57:16;100251.55;;;10.62;69.63
62864;BME280;48954;59.950;11.014;2022-09-09T07:59:50;100254.90;;;10.61;69.44
62864;BME280;48954;59.950;11.014;2022-09-09T08:02:16;100250.70;;;10.61;69.40
62864;BME280;48954;59.950;11.014;2022-09-09T08:04:42;100253.55;;;10.61;69.45
62864;BME280;48954;59.950;11.014;2022-09-09T08:07:10;100254.44;;;10.62;69.48
62864;BME280;48954;59.950;11.014;2022-09-09T08:09:37;100258.54;;;10.62;69.34
62864;BME280;48954;59.950;11.014;2022-09-09T08:12:03;100265.34;;;10.67;69.36
62864;BME280;48954;59.950;11.014;2022-09-09T08:14:29;100264.31;;;10.69;69.33
62864;BME280;48954;59.950;11.014;2022-09-09T08:16:56;100268.96;;;10.72;69.37
62864;BME280;48954;59.950;11.014;2022-09-09T08:19:22;100267.48;;;10.76;69.26
62864;BME280;48954;59.950;11.014;2022-09-09T08:21:48;100266.20;;;10.80;69.02
62864;BME280;48954;59.950;11.014;2022-09-09T08:24:15;100268.52;;;10.86;68.98
62864;BME280;48954;59.950;11.014;2022-09-09T08:26:44;100266.23;;;10.92;69.02
62864;BME280;48954;59.950;11.014;2022-09-09T08:29:11;100268.09;;;10.98;69.14
62864;BME280;48954;59.950;11.014;2022-09-09T08:31:42;100270.47;;;11.05;69.06
62864;BME280;48954;59.950;11.014;2022-09-09T08:34:09;100271.11;;;11.11;69.04
62864;BME280;48954;59.950;11.014;2022-09-09T08:36:41;100274.73;;;11.17;68.78
62864;BME280;48954;59.950;11.014;2022-09-09T08:39:08;100277.02;;;11.23;68.52
62864;BME280;48954;59.950;11.014;2022-09-09T08:44:07;100271.87;;;11.33;68.34
62864;BME280;48954;59.950;11.014;2022-09-09T08:49:02;100269.98;;;11.44;68.07
62864;BME280;48954;59.950;11.014;2022-09-09T08:51:32;100271.66;;;11.51;67.88
62864;BME280;48954;59.950;11.014;2022-09-09T08:53:59;100270.08;;;11.57;67.64
62864;BME280;48954;59.950;11.014;2022-09-09T08:56:28;100271.02;;;11.62;67.46
62864;BME280;48954;59.950;11.014;2022-09-09T08:58:57;100267.46;;;11.68;67.31
62864;BME280;48954;59.950;11.014;2022-09-09T09:06:53;100271.21;;;11.84;66.78
62864;BME280;48954;59.950;11.014;2022-09-09T09:09:23;100271.85;;;11.87;66.51
62864;BME280;48954;59.950;11.014;2022-09-09T09:14:23;100270.02;;;11.96;66.24
62864;BME280;48954;59.950;11.014;2022-09-09T09:16:54;100267.45;;;12.00;66.18
62864;BME280;48954;59.950;11.014;2022-09-09T09:19:23;100261.20;;;12.06;65.96
62864;BME280;48954;59.950;11.014;2022-09-09T09:24:19;100266.48;;;12.19;65.76
62864;BME280;48954;59.950;11.014;2022-09-09T09:26:46;100265.10;;;12.24;65.48
62864;BME280;48954;59.950;11.014;2022-09-09T09:29:14;100264.87;;;12.27;65.28
62864;BME280;48954;59.950;11.014;2022-09-09T09:31:48;100256.80;;;12.29;64.96
62864;BME280;48954;59.950;11.014;2022-09-09T09:34:19;100257.09;;;12.31;65.01
62864;BME280;48954;59.950;11.014;2022-09-09T09:36:48;100255.86;;;12.33;64.97
62864;BME280;48954;59.950;11.014;2022-09-09T09:39:31;100255.77;;;12.39;64.84
62864;BME280;48954;59.950;11.014;2022-09-09T09:41:57;100255.01;;;12.43;64.61
62864;BME280;48954;59.950;11.014;2022-09-09T09:46:50;100252.58;;;12.48;64.46
62864;BME280;48954;59.950;11.014;2022-09-09T09:49:29;100250.88;;;12.52;64.04
62864;BME280;48954;59.950;11.014;2022-09-09T09:51:59;100247.02;;;12.56;64.05
62864;BME280;48954;59.950;11.014;2022-09-09T09:54:27;100247.71;;;12.59;63.91
62864;BME280;48954;59.950;11.014;2022-09-09T09:56:54;100248.17;;;12.63;64.05
62864;BME280;48954;59.950;11.014;2022-09-09T09:59:33;100252.00;;;12.64;63.83
62864;BME280;48954;59.950;11.014;2022-09-09T10:02:36;100250.80;;;12.67;63.86
62864;BME280;48954;59.950;11.014;2022-09-09T10:05:03;100246.81;;;12.72;63.85
62864;BME280;48954;59.950;11.014;2022-09-09T10:07:29;100244.74;;;12.75;63.47
62864;BME280;48954;59.950;11.014;2022-09-09T10:09:57;100243.39;;;12.78;63.29
62864;BME280;48954;59.950;11.014;2022-09-09T10:12:30;100244.86;;;12.80;63.26
62864;BME280;48954;59.950;11.014;2022-09-09T10:16:20;100245.00;;;12.87;63.20
62864;BME280;48954;59.950;11.014;2022-09-09T10:18:39;100240.78;;;12.97;63.15
62864;BME280;48954;59.950;11.014;2022-09-09T10:23:54;100241.52;;;13.10;62.85
62864;BME280;48954;59.950;11.014;2022-09-09T10:40:48;100243.19;;;13.33;62.38
62864;BME280;48954;59.950;11.014;2022-09-09T10:43:55;100243.05;;;13.34;62.30
62864;BME280;48954;59.950;11.014;2022-09-09T10:46:40;100241.08;;;13.39;62.11
62864;BME280;48954;59.950;11.014;2022-09-09T10:52:10;100236.82;;;13.39;61.92
62864;BME280;48954;59.950;11.014;2022-09-09T10:55:16;100233.60;;;13.35;61.74
62864;BME280;48954;59.950;11.014;2022-09-09T10:57:50;100236.15;;;13.29;61.62
62864;BME280;48954;59.950;11.014;2022-09-09T11:00:18;100234.66;;;13.26;61.65
62864;BME280;48954;59.950;11.014;2022-09-09T11:03:04;100238.12;;;13.25;61.66
62864;BME280;48954;59.950;11.014;2022-09-09T11:05:33;100237.80;;;13.24;61.71
62864;BME280;48954;59.950;11.014;2022-09-09T11:08:44;100231.93;;;13.21;61.62
62864;BME280;48954;59.950;11.014;2022-09-09T11:14:15;100231.64;;;13.23;61.65
62864;BME280;48954;59.950;11.014;2022-09-09T11:16:50;100231.89;;;13.23;61.63
62864;BME280;48954;59.950;11.014;2022-09-09T11:22:33;100233.30;;;13.23;61.60
62864;BME280;48954;59.950;11.014;2022-09-09T11:25:53;100233.45;;;13.23;61.51
62864;BME280;48954;59.950;11.014;2022-09-09T11:38:46;100219.20;;;13.17;61.38
62864;BME280;48954;59.950;11.014;2022-09-09T11:41:13;100218.22;;;13.15;61.41
62864;BME280;48954;59.950;11.014;2022-09-09T11:46:07;100215.01;;;13.10;61.39
62864;BME280;48954;59.950;11.014;2022-09-09T11:48:40;100210.38;;;13.11;61.43
62864;BME280;48954;59.950;11.014;2022-09-09T11:51:08;100212.83;;;13.11;61.41
62864;BME280;48954;59.950;11.014;2022-09-09T11:53:35;100217.23;;;13.10;61.61
62864;BME280;48954;59.950;11.014;2022-09-09T11:56:04;100213.47;;;13.12;61.69
62864;BME280;48954;59.950;11.014;2022-09-09T11:58:38;100212.15;;;13.16;61.85
62864;BME280;48954;59.950;11.014;2022-09-09T12:04:17;100210.75;;;13.29;61.74
62864;BME280;48954;59.950;11.014;2022-09-09T12:06:58;100204.63;;;13.35;61.24
62864;BME280;48954;59.950;11.014;2022-09-09T12:09:29;100203.52;;;13.40;61.12
62864;BME280;48954;59.950;11.014;2022-09-09T12:17:30;100199.47;;;13.60;61.17
62864;BME280;48954;59.950;11.014;2022-09-09T12:25:43;100194.81;;;13.89;60.84
62864;BME280;48954;59.950;11.014;2022-09-09T12:28:32;100187.53;;;13.94;60.61
62864;BME280;48954;59.950;11.014;2022-09-09T12:31:10;100183.49;;;13.98;60.56
62864;BME280;48954;59.950;11.014;2022-09-09T12:33:39;100181.48;;;14.17;60.63
62864;BME280;48954;59.950;11.014;2022-09-09T12:36:06;100179.05;;;14.34;60.14
62864;BME280;48954;59.950;11.014;2022-09-09T12:38:38;100178.94;;;14.48;60.06
62864;BME280;48954;59.950;11.014;2022-09-09T12:41:05;100165.81;;;14.54;59.78
62864;BME280;48954;59.950;11.014;2022-09-09T12:43:32;100167.23;;;14.65;59.57
62864;BME280;48954;59.950;11.014;2022-09-09T12:46:07;100162.20;;;14.82;59.52
62864;BME280;48954;59.950;11.014;2022-09-09T12:48:38;100159.88;;;15.07;59.47
62864;BME280;48954;59.950;11.014;2022-09-09T12:51:19;100151.13;;;15.28;58.99
62864;BME280;48954;59.950;11.014;2022-09-09T12:53:56;100146.77;;;15.60;58.63
62864;BME280;48954;59.950;11.014;2022-09-09T12:56:26;100146.94;;;16.01;57.83
62864;BME280;48954;59.950;11.014;2022-09-09T12:58:54;100146.52;;;16.13;56.70
62864;BME280;48954;59.950;11.014;2022-09-09T13:01:25;100136.14;;;16.13;56.48
62864;BME280;48954;59.950;11.014;2022-09-09T13:03:55;100129.48;;;16.14;56.43
62864;BME280;48954;59.950;11.014;2022-09-09T13:06:25;100129.28;;;16.19;56.03
62864;BME280;48954;59.950;11.014;2022-09-09T13:09:00;100128.50;;;16.18;55.74
62864;BME280;48954;59.950;11.014;2022-09-09T13:14:29;100123.73;;;16.32;55.96
62864;BME280;48954;59.950;11.014;2022-09-09T13:16:59;100125.27;;;16.42;55.77
62864;BME280;48954;59.950;11.014;2022-09-09T13:19:37;100123.78;;;16.43;55.26
62864;BME280;48954;59.950;11.014;2022-09-09T13:22:14;100122.98;;;16.41;55.04
62864;BME280;48954;59.950;11.014;2022-09-09T13:24:43;100118.97;;;16.31;54.74
62864;BME280;48954;59.950;11.014;2022-09-09T13:30:19;100114.35;;;16.28;54.78
62864;BME280;48954;59.950;11.014;2022-09-09T13:32:45;100110.67;;;16.41;55.08
62864;BME280;48954;59.950;11.014;2022-09-09T13:35:24;100109.63;;;16.57;54.88
62864;BME280;48954;59.950;11.014;2022-09-09T13:37:52;100113.14;;;16.76;54.57
62864;BME280;48954;59.950;11.014;2022-09-09T13:40:20;100110.64;;;16.92;54.16
62864;BME280;48954;59.950;11.014;2022-09-09T13:42:50;100111.70;;;16.98;53.63
62864;BME280;48954;59.950;11.014;2022-09-09T13:45:19;100107.92;;;16.87;53.04
62864;BME280;48954;59.950;11.014;2022-09-09T13:47:46;100115.05;;;16.79;52.93
62864;BME280;48954;59.950;11.014;2022-09-09T13:50:26;100107.64;;;16.71;52.76
62864;BME280;48954;59.950;11.014;2022-09-09T13:52:55;100112.92;;;16.62;52.19
62864;BME280;48954;59.950;11.014;2022-09-09T13:55:29;100107.94;;;16.47;52.33
62864;BME280;48954;59.950;11.014;2022-09-09T13:57:57;100109.54;;;16.34;52.17
62864;BME280;48954;59.950;11.014;2022-09-09T14:00:24;100110.90;;;16.22;52.07
62864;BME280;48954;59.950;11.014;2022-09-09T14:02:53;100108.66;;;16.18;52.27
62864;BME280;48954;59.950;11.014;2022-09-09T14:05:19;100107.89;;;16.26;52.48
62864;BME280;48954;59.950;11.014;2022-09-09T14:07:52;100108.92;;;16.22;52.28
62864;BME280;48954;59.950;11.014;2022-09-09T14:10:26;100107.86;;;16.16;52.39
62864;BME280;48954;59.950;11.014;2022-09-09T14:13:00;100101.09;;;16.11;52.51
62864;BME280;48954;59.950;11.014;2022-09-09T14:15:31;100099.50;;;16.11;52.59
62864;BME280;48954;59.950;11.014;2022-09-09T14:17:58;100096.34;;;16.09;52.48
62864;BME280;48954;59.950;11.014;2022-09-09T14:20:25;100090.76;;;16.20;52.75
62864;BME280;48954;59.950;11.014;2022-09-09T14:22:51;100088.52;;;16.52;52.53
62864;BME280;48954;59.950;11.014;2022-09-09T14:25:32;100085.11;;;17.07;51.49
62864;BME280;48954;59.950;11.014;2022-09-09T14:28:03;100083.48;;;16.89;51.45
62864;BME280;48954;59.950;11.014;2022-09-09T14:30:42;100087.04;;;16.81;51.19
62864;BME280;48954;59.950;11.014;2022-09-09T14:33:11;100081.91;;;16.98;51.30
62864;BME280;48954;59.950;11.014;2022-09-09T14:35:38;100070.79;;;16.91;50.99
62864;BME280;48954;59.950;11.014;2022-09-09T14:38:07;100077.70;;;16.86;51.03
62864;BME280;48954;59.950;11.014;2022-09-09T14:40:35;100079.20;;;16.86;51.39
62864;BME280;48954;59.950;11.014;2022-09-09T14:43:05;100080.78;;;16.89;50.95
62864;BME280;48954;59.950;11.014;2022-09-09T14:45:32;100080.93;;;16.89;50.84
62864;BME280;48954;59.950;11.014;2022-09-09T14:48:03;100080.54;;;16.80;51.01
62864;BME280;48954;59.950;11.014;2022-09-09T14:50:40;100076.84;;;16.64;50.75
62864;BME280;48954;59.950;11.014;2022-09-09T14:53:07;100083.09;;;16.45;50.94
62864;BME280;48954;59.950;11.014;2022-09-09T14:55:34;100082.39;;;16.29;51.14
62864;BME280;48954;59.950;11.014;2022-09-09T14:58:00;100080.74;;;16.17;51.41
62864;BME280;48954;59.950;11.014;2022-09-09T15:00:29;100080.39;;;16.06;51.67
62864;BME280;48954;59.950;11.014;2022-09-09T15:03:10;100082.15;;;15.97;51.78
62864;BME280;48954;59.950;11.014;2022-09-09T15:05:41;100073.36;;;15.85;51.60
62864;BME280;48954;59.950;11.014;2022-09-09T15:08:18;100076.58;;;15.79;51.49
62864;BME280;48954;59.950;11.014;2022-09-09T15:10:49;100075.65;;;15.70;51.72
62864;BME280;48954;59.950;11.014;2022-09-09T15:13:17;100078.39;;;15.65;51.95
62864;BME280;48954;59.950;11.014;2022-09-09T15:15:46;100074.94;;;15.59;52.11
62864;BME280;48954;59.950;11.014;2022-09-09T15:18:15;100079.48;;;15.54;51.98
62864;BME280;48954;59.950;11.014;2022-09-09T15:20:47;100077.67;;;15.48;51.86
62864;BME280;48954;59.950;11.014;2022-09-09T15:23:19;100077.64;;;15.42;52.11
62864;BME280;48954;59.950;11.014;2022-09-09T15:25:53;100078.36;;;15.35;51.90
62864;BME280;48954;59.950;11.014;2022-09-09T15:28:20;100078.16;;;15.28;51.84
62864;BME280;48954;59.950;11.014;2022-09-09T15:30:49;100076.66;;;15.22;51.84
62864;BME280;48954;59.950;11.014;2022-09-09T15:33:17;100072.96;;;15.15;51.85
62864;BME280;48954;59.950;11.014;2022-09-09T15:35:47;100075.06;;;15.11;52.14
62864;BME280;48954;59.950;11.014;2022-09-09T15:38:23;100069.80;;;15.06;52.21
62864;BME280;48954;59.950;11.014;2022-09-09T15:40:57;100067.30;;;15.01;52.28
62864;BME280;48954;59.950;11.014;2022-09-09T15:43:24;100062.98;;;14.98;52.45
62864;BME280;48954;59.950;11.014;2022-09-09T15:45:52;100058.09;;;14.91;52.48
62864;BME280;48954;59.950;11.014;2022-09-09T15:48:43;100065.55;;;14.91;52.56
62864;BME280;48954;59.950;11.014;2022-09-09T15:51:12;100065.52;;;14.88;52.68
62864;BME280;48954;59.950;11.014;2022-09-09T15:56:19;100068.20;;;14.82;52.94
62864;BME280;48954;59.950;11.014;2022-09-09T15:58:58;100061.06;;;14.78;52.98
62864;BME280;48954;59.950;11.014;2022-09-09T16:01:33;100065.80;;;14.77;53.21
62864;BME280;48954;59.950;11.014;2022-09-09T16:04:02;100065.45;;;14.75;53.08
62864;BME280;48954;59.950;11.014;2022-09-09T16:06:32;100059.61;;;14.69;53.23
62864;BME280;48954;59.950;11.014;2022-09-09T16:09:13;100060.86;;;14.69;53.23
62864;BME280;48954;59.950;11.014;2022-09-09T16:11:39;100060.77;;;14.67;53.33
62864;BME280;48954;59.950;11.014;2022-09-09T16:14:05;100054.17;;;14.62;53.32
62864;BME280;48954;59.950;11.014;2022-09-09T16:16:35;100065.09;;;14.62;53.46
62864;BME280;48954;59.950;11.014;2022-09-09T16:19:11;100070.56;;;14.63;53.63
62864;BME280;48954;59.950;11.014;2022-09-09T16:21:48;100075.16;;;14.64;53.59
62864;BME280;48954;59.950;11.014;2022-09-09T16:24:16;100074.92;;;14.64;53.54
62864;BME280;48954;59.950;11.014;2022-09-09T16:26:48;100076.90;;;14.64;53.25
62864;BME280;48954;59.950;11.014;2022-09-09T16:29:31;100069.94;;;14.64;53.31
62864;BME280;48954;59.950;11.014;2022-09-09T16:32:07;100072.23;;;14.65;53.35
62864;BME280;48954;59.950;11.014;2022-09-09T16:34:37;100067.73;;;14.65;53.55
62864;BME280;48954;59.950;11.014;2022-09-09T16:37:03;100066.92;;;14.64;53.32
62864;BME280;48954;59.950;11.014;2022-09-09T16:39:35;100066.20;;;14.62;53.01
62864;BME280;48954;59.950;11.014;2022-09-09T16:42:02;100063.14;;;14.58;53.10
62864;BME280;48954;59.950;11.014;2022-09-09T16:44:36;100071.29;;;14.58;53.11
62864;BME280;48954;59.950;11.014;2022-09-09T16:47:04;100071.10;;;14.57;53.23
62864;BME280;48954;59.950;11.014;2022-09-09T16:49:34;100072.73;;;14.54;53.30
62864;BME280;48954;59.950;11.014;2022-09-09T16:52:01;100064.05;;;14.47;53.25
62864;BME280;48954;59.950;11.014;2022-09-09T16:54:33;100072.23;;;14.50;53.26